createdAt,value
2017-06-24T00:00:04.396Z,9.20
2017-06-24T00:02:32.773Z,10.17
2017-06-24T00:05:01.125Z,10.47
2017-06-24T00:07:29.557Z,11.45
2017-06-24T00:09:57.896Z,9.77
2017-06-24T00:12:26.256Z,10.47
2017-06-24T00:14:54.597Z,10.20
2017-06-24T00:17:22.945Z,9.60
2017-06-24T00:19:51.286Z,10.17
2017-06-24T00:22:19.634Z,10.27
2017-06-24T00:24:48.005Z,11.40
2017-06-24T00:27:16.334Z,11.33
2017-06-24T00:29:44.686Z,11.30
2017-06-24T00:32:13.084Z,11.93
2017-06-24T00:34:41.418Z,10.15
2017-06-24T00:37:09.769Z,10.30
2017-06-24T00:39:38.134Z,11.33
2017-06-24T00:42:06.472Z,12.43
2017-06-24T00:44:34.829Z,11.93
2017-06-24T00:47:03.190Z,12.30
2017-06-24T00:49:31.568Z,12.55
2017-06-24T00:51:59.953Z,11.20
2017-06-24T00:54:28.309Z,11.33
2017-06-24T00:56:56.665Z,11.68
2017-06-24T00:59:25.022Z,11.75
2017-06-24T01:01:53.392Z,11.80
2017-06-24T01:04:21.807Z,12.50
2017-06-24T01:06:50.169Z,12.82
2017-06-24T01:09:18.581Z,11.88
2017-06-24T01:11:46.997Z,12.33
2017-06-24T01:14:15.354Z,12.48
2017-06-24T01:16:43.725Z,11.88
2017-06-24T01:19:12.102Z,12.30
2017-06-24T01:21:40.445Z,12.85
2017-06-24T01:24:08.796Z,11.88
2017-06-24T01:26:37.151Z,12.30
2017-06-24T01:29:05.514Z,11.82
2017-06-24T01:31:33.882Z,12.35
2017-06-24T01:34:02.255Z,10.90
2017-06-24T01:36:30.627Z,11.10
2017-06-24T01:38:58.992Z,11.85
2017-06-24T01:41:27.350Z,12.63
2017-06-24T01:43:55.707Z,12.82
2017-06-24T01:46:24.053Z,14.02
2017-06-24T01:48:52.423Z,12.55
2017-06-24T01:51:20.840Z,11.80
2017-06-24T01:53:49.217Z,13.45
2017-06-24T01:56:17.593Z,12.40
2017-06-24T01:58:45.948Z,13.55
2017-06-24T02:01:14.318Z,13.65
2017-06-24T02:03:42.667Z,11.60
2017-06-24T02:06:11.015Z,13.70
2017-06-24T02:08:39.390Z,12.70
2017-06-24T02:11:07.760Z,12.50
2017-06-24T02:13:37.036Z,13.13
2017-06-24T02:16:05.377Z,12.02
2017-06-24T02:18:33.744Z,12.75
2017-06-24T02:21:02.093Z,13.20
2017-06-24T02:23:30.454Z,12.60
2017-06-24T02:25:58.800Z,12.90
2017-06-24T02:28:27.190Z,12.98
2017-06-24T02:30:55.546Z,13.07
2017-06-24T02:33:23.893Z,11.18
2017-06-24T02:35:52.290Z,12.05
2017-06-24T02:38:20.669Z,13.40
2017-06-24T02:40:49.013Z,12.15
2017-06-24T02:43:17.402Z,12.43
2017-06-24T02:45:45.741Z,13.52
2017-06-24T02:48:14.089Z,13.13
2017-06-24T02:50:42.453Z,13.85
2017-06-24T02:53:10.871Z,12.20
2017-06-24T02:55:39.217Z,13.52
2017-06-24T02:58:07.573Z,12.45
2017-06-24T03:00:36.031Z,12.65
2017-06-24T03:03:04.365Z,13.62
2017-06-24T03:05:32.701Z,12.95
2017-06-24T03:08:01.062Z,12.18
2017-06-24T03:10:29.421Z,13.75
2017-06-24T03:12:57.811Z,13.50
2017-06-24T03:15:26.148Z,13.23
2017-06-24T03:17:54.525Z,13.30
2017-06-24T03:20:22.984Z,13.40
2017-06-24T03:22:51.382Z,11.90
2017-06-24T03:25:19.756Z,13.75
2017-06-24T03:27:48.105Z,13.52
2017-06-24T03:30:16.512Z,12.95
2017-06-24T03:32:44.861Z,12.82
2017-06-24T03:35:13.246Z,12.90
2017-06-24T03:37:41.590Z,13.35
2017-06-24T03:40:09.977Z,12.00
2017-06-24T03:42:38.321Z,12.40
2017-06-24T03:45:06.843Z,12.63
2017-06-24T03:47:35.200Z,13.02
2017-06-24T03:50:03.569Z,13.00
2017-06-24T03:52:31.920Z,11.57
2017-06-24T03:55:00.276Z,12.23
2017-06-24T03:57:28.665Z,14.70
2017-06-24T03:59:57.026Z,13.23
2017-06-24T04:02:25.415Z,12.43
2017-06-24T04:04:53.750Z,14.15
2017-06-24T04:07:22.099Z,12.68
2017-06-24T04:09:50.461Z,13.27
2017-06-24T04:12:18.802Z,12.25
2017-06-24T04:14:47.211Z,13.10
2017-06-24T04:17:15.583Z,13.20
2017-06-24T04:19:43.933Z,13.65
2017-06-24T04:22:12.288Z,13.00
2017-06-24T04:24:40.633Z,11.65
2017-06-24T04:27:09.005Z,13.10
2017-06-24T04:29:37.387Z,13.25
2017-06-24T04:32:07.290Z,12.75
2017-06-24T04:34:35.620Z,13.13
2017-06-24T04:37:03.977Z,13.20
2017-06-24T04:39:32.334Z,13.77
2017-06-24T04:42:00.749Z,13.82
2017-06-24T04:44:29.209Z,14.40
2017-06-24T04:46:57.581Z,14.32
2017-06-24T04:49:25.950Z,13.80
2017-06-24T04:51:54.281Z,14.73
2017-06-24T04:54:22.681Z,13.27
2017-06-24T04:56:51.026Z,13.63
2017-06-24T04:59:19.384Z,13.40
2017-06-24T05:01:47.761Z,13.50
2017-06-24T05:04:16.134Z,15.20
2017-06-24T05:06:44.526Z,13.90
2017-06-24T05:09:12.899Z,13.67
2017-06-24T05:11:41.229Z,13.87
2017-06-24T05:14:10.445Z,13.37
2017-06-24T05:16:38.793Z,14.60
2017-06-24T05:19:07.133Z,13.00
2017-06-24T05:21:35.481Z,14.70
2017-06-24T05:24:03.825Z,13.70
2017-06-24T05:26:32.184Z,13.67
2017-06-24T05:29:00.538Z,14.77
2017-06-24T05:31:29.020Z,13.60
2017-06-24T05:33:57.349Z,14.87
2017-06-24T05:36:25.698Z,14.23
2017-06-24T05:38:54.052Z,12.53
2017-06-24T05:41:22.410Z,12.80
2017-06-24T05:43:50.782Z,13.37
2017-06-24T05:46:19.163Z,13.50
2017-06-24T05:48:47.509Z,12.10
2017-06-24T05:51:15.860Z,12.63
2017-06-24T05:53:44.223Z,11.10
2017-06-24T05:56:12.563Z,12.00
2017-06-24T05:58:40.904Z,10.90
2017-06-24T06:01:09.261Z,11.50
2017-06-24T06:03:37.647Z,10.23
2017-06-24T06:06:05.981Z,8.67
2017-06-24T06:08:34.365Z,11.17
2017-06-24T06:11:02.710Z,10.07
2017-06-24T06:13:31.058Z,8.50
2017-06-24T06:15:59.397Z,6.97
2017-06-24T06:18:27.740Z,7.27
2017-06-24T06:20:56.079Z,6.67
2017-06-24T06:23:24.515Z,7.53
2017-06-24T06:25:52.866Z,7.10
2017-06-24T06:28:21.214Z,6.87
2017-06-24T06:30:49.561Z,6.60
2017-06-24T06:33:17.898Z,7.77
2017-06-24T06:35:46.240Z,7.33
2017-06-24T06:38:14.569Z,7.73
2017-06-24T06:40:42.930Z,7.40
2017-06-24T06:43:11.278Z,7.53
2017-06-24T06:45:39.647Z,6.97
2017-06-24T06:48:08.003Z,8.30
2017-06-24T06:50:36.329Z,7.13
2017-06-24T06:53:04.778Z,7.63
2017-06-24T06:55:33.133Z,6.70
2017-06-24T06:58:01.508Z,6.83
2017-06-24T07:00:29.834Z,7.60
2017-06-24T07:02:58.199Z,6.10
2017-06-24T07:05:26.626Z,6.37
2017-06-24T07:07:54.961Z,7.10
2017-06-24T07:10:23.355Z,7.07
2017-06-24T07:12:51.681Z,7.60
2017-06-24T07:15:20.084Z,6.80
2017-06-24T07:17:48.410Z,7.50
2017-06-24T07:20:16.789Z,7.07
2017-06-24T07:22:45.128Z,6.70
2017-06-24T07:25:13.504Z,6.40
2017-06-24T07:27:41.896Z,6.13
2017-06-24T07:30:10.268Z,6.57
2017-06-24T07:32:38.585Z,6.50
2017-06-24T07:35:06.988Z,6.43
2017-06-24T07:37:35.382Z,6.60
2017-06-24T07:40:03.761Z,6.77
2017-06-24T07:42:32.110Z,5.93
2017-06-24T07:45:00.426Z,6.70
2017-06-24T07:47:28.769Z,6.60
2017-06-24T07:49:57.160Z,6.60
2017-06-24T07:52:25.932Z,6.43
2017-06-24T07:54:54.313Z,7.47
2017-06-24T07:57:22.662Z,7.30
2017-06-24T07:59:50.990Z,6.70
2017-06-24T08:02:19.345Z,6.47
2017-06-24T08:04:47.790Z,7.50
2017-06-24T08:07:16.139Z,7.50
2017-06-24T08:09:44.456Z,6.57
2017-06-24T08:12:12.818Z,7.40
2017-06-24T08:14:41.142Z,7.10
2017-06-24T08:17:09.481Z,7.13
2017-06-24T08:19:37.813Z,6.17
2017-06-24T08:22:06.181Z,8.43
2017-06-24T08:24:34.515Z,8.00
2017-06-24T08:27:02.873Z,7.90
2017-06-24T08:29:31.327Z,7.60
2017-06-24T08:31:59.653Z,7.00
2017-06-24T08:34:28.030Z,8.67
2017-06-24T08:36:56.377Z,7.50
2017-06-24T08:39:24.727Z,7.03
2017-06-24T08:41:53.087Z,7.00
2017-06-24T08:44:21.402Z,7.43
2017-06-24T08:46:49.749Z,8.00
2017-06-24T08:49:18.101Z,7.37
2017-06-24T08:51:46.457Z,8.20
2017-06-24T08:54:14.794Z,7.80
2017-06-24T08:56:43.133Z,7.63
2017-06-24T08:59:11.471Z,7.70
2017-06-24T09:01:39.887Z,7.03
2017-06-24T09:04:08.313Z,7.23
2017-06-24T09:06:36.645Z,7.50
2017-06-24T09:09:05.001Z,7.80
2017-06-24T09:11:33.358Z,7.33
2017-06-24T09:14:01.685Z,7.77
2017-06-24T09:16:30.122Z,7.57
2017-06-24T09:18:58.461Z,7.47
2017-06-24T09:21:26.793Z,7.43
2017-06-24T09:23:55.137Z,7.70
2017-06-24T09:26:23.478Z,7.63
2017-06-24T09:28:51.823Z,7.70
2017-06-24T09:31:20.172Z,8.00
2017-06-24T09:33:48.497Z,7.90
2017-06-24T09:36:16.838Z,7.70
2017-06-24T09:38:45.182Z,8.17
2017-06-24T09:41:13.590Z,8.73
2017-06-24T09:43:41.926Z,8.03
2017-06-24T09:46:10.262Z,7.73
2017-06-24T09:48:38.611Z,8.27
2017-06-24T09:51:06.970Z,8.13
2017-06-24T09:53:35.328Z,7.27
2017-06-24T09:56:03.698Z,8.50
2017-06-24T09:58:32.054Z,8.40
2017-06-24T10:01:00.429Z,8.40
2017-06-24T10:03:28.792Z,8.40
2017-06-24T10:05:57.146Z,8.40
2017-06-24T10:08:26.425Z,8.37
2017-06-24T10:10:54.770Z,8.90
2017-06-24T10:13:23.129Z,9.07
2017-06-24T10:15:51.479Z,8.73
2017-06-24T10:18:19.949Z,8.60
2017-06-24T10:20:48.272Z,8.90
2017-06-24T10:23:16.648Z,9.20
2017-06-24T10:25:45.093Z,8.90
2017-06-24T10:28:13.430Z,8.13
2017-06-24T10:30:41.753Z,9.03
2017-06-24T10:33:10.125Z,9.50
2017-06-24T10:35:38.463Z,8.93
2017-06-24T10:38:06.817Z,9.80
2017-06-24T10:40:35.169Z,8.60
2017-06-24T10:43:03.512Z,8.33
2017-06-24T10:45:31.853Z,9.73
2017-06-24T10:48:00.845Z,10.50
2017-06-24T10:50:29.387Z,8.97
2017-06-24T10:52:57.716Z,9.73
2017-06-24T10:55:26.073Z,10.20
2017-06-24T10:57:54.424Z,9.50
2017-06-24T11:00:22.823Z,9.13
2017-06-24T11:02:51.184Z,9.57
2017-06-24T11:05:19.573Z,8.80
2017-06-24T11:07:47.959Z,9.63
2017-06-24T11:10:16.365Z,9.83
2017-06-24T11:12:44.696Z,9.00
2017-06-24T11:15:13.134Z,8.73
2017-06-24T11:17:41.461Z,9.20
2017-06-24T11:20:09.836Z,9.97
2017-06-24T11:22:38.210Z,8.97
2017-06-24T11:25:06.597Z,9.40
2017-06-24T11:27:35.003Z,9.80
2017-06-24T11:30:03.430Z,8.63
2017-06-24T11:32:31.812Z,9.90
2017-06-24T11:35:00.153Z,9.93
2017-06-24T11:37:28.589Z,10.60
2017-06-24T11:39:56.920Z,10.43
2017-06-24T11:42:25.256Z,9.50
2017-06-24T11:44:53.659Z,10.07
2017-06-24T11:47:21.984Z,9.17
2017-06-24T11:49:50.331Z,9.47
2017-06-24T11:52:18.667Z,9.27
2017-06-24T11:54:47.819Z,9.67
2017-06-24T11:57:16.154Z,10.27
2017-06-24T11:59:44.494Z,10.13
2017-06-24T12:02:12.892Z,8.80
2017-06-24T12:04:41.216Z,10.13
2017-06-24T12:07:09.665Z,10.20
2017-06-24T12:09:38.190Z,10.47
2017-06-24T12:12:06.517Z,9.70
2017-06-24T12:14:34.865Z,10.03
2017-06-24T12:17:03.210Z,9.80
2017-06-24T12:19:31.545Z,10.30
2017-06-24T12:21:59.931Z,10.63
2017-06-24T12:24:28.294Z,10.00
2017-06-24T12:26:56.622Z,10.00
2017-06-24T12:29:25.031Z,9.40
2017-06-24T12:31:53.378Z,9.73
2017-06-24T12:34:21.705Z,10.00
2017-06-24T12:36:50.140Z,10.30
2017-06-24T12:39:18.513Z,10.10
2017-06-24T12:41:52.448Z,9.60
2017-06-24T12:44:20.823Z,10.93
2017-06-24T12:46:49.161Z,9.93
2017-06-24T12:49:17.527Z,10.80
2017-06-24T12:52:13.240Z,9.77
2017-06-24T12:54:41.575Z,10.67
2017-06-24T12:57:09.930Z,10.07
2017-06-24T12:59:40.955Z,11.13
2017-06-24T13:02:09.289Z,9.83
2017-06-24T13:04:37.621Z,9.50
2017-06-24T13:07:05.993Z,10.60
2017-06-24T13:09:34.333Z,9.77
2017-06-24T13:12:02.688Z,10.38
2017-06-24T13:14:31.036Z,10.07
2017-06-24T13:16:59.378Z,9.95
2017-06-24T13:19:27.749Z,11.90
2017-06-24T13:21:56.305Z,10.53
2017-06-24T13:24:24.649Z,10.07
2017-06-24T13:26:52.280Z,10.20
2017-06-24T13:29:19.720Z,9.77
2017-06-24T13:31:47.112Z,10.30
2017-06-24T13:34:14.508Z,9.67
2017-06-24T13:36:41.919Z,9.90
2017-06-24T13:39:09.432Z,10.00
2017-06-24T13:41:36.816Z,10.00
2017-06-24T13:44:06.650Z,10.27
2017-06-24T13:46:34.071Z,10.33
2017-06-24T13:49:01.498Z,10.43
2017-06-24T13:51:29.124Z,9.83
2017-06-24T13:53:56.545Z,10.50
2017-06-24T13:56:23.931Z,9.67
2017-06-24T13:58:51.337Z,9.90
2017-06-24T14:01:19.092Z,10.67
2017-06-24T14:03:48.095Z,10.47
2017-06-24T14:06:15.606Z,11.10
2017-06-24T14:08:43.020Z,10.17
2017-06-24T14:11:10.448Z,10.10
2017-06-24T14:13:37.864Z,10.60
2017-06-24T14:16:06.123Z,9.77
2017-06-24T14:18:33.588Z,11.40
2017-06-24T14:21:01.001Z,10.27
2017-06-24T14:23:28.420Z,10.10
2017-06-24T14:25:55.820Z,10.10
2017-06-24T14:28:23.235Z,9.70
2017-06-24T14:30:50.617Z,9.93
2017-06-24T14:33:18.028Z,10.90
2017-06-24T14:35:45.730Z,9.70
2017-06-24T14:38:14.366Z,9.40
2017-06-24T14:40:41.849Z,9.80
2017-06-24T14:43:09.377Z,10.97
2017-06-24T14:45:37.029Z,10.30
2017-06-24T14:48:04.709Z,9.37
2017-06-24T14:50:32.146Z,10.00
2017-06-24T14:53:00.194Z,10.20
2017-06-24T14:55:27.804Z,9.87
2017-06-24T14:57:55.300Z,10.47
2017-06-24T15:00:22.768Z,9.60
2017-06-24T15:02:50.398Z,9.73
2017-06-24T15:05:18.092Z,9.50
2017-06-24T15:07:45.599Z,10.23
2017-06-24T15:10:13.053Z,10.40
2017-06-24T15:12:40.457Z,9.93
2017-06-24T15:15:07.904Z,9.80
2017-06-24T15:17:35.316Z,9.83
2017-06-24T15:20:03.631Z,10.03
2017-06-24T15:22:31.252Z,9.47
2017-06-24T15:24:58.917Z,11.50
2017-06-24T15:27:26.980Z,10.40
2017-06-24T15:29:54.604Z,10.23
2017-06-24T15:32:22.010Z,10.40
2017-06-24T15:34:49.857Z,9.57
2017-06-24T15:37:17.456Z,9.77
2017-06-24T15:39:44.828Z,8.67
2017-06-24T15:42:12.228Z,9.57
2017-06-24T15:44:39.747Z,9.77
2017-06-24T15:47:07.375Z,10.33
2017-06-24T15:49:35.061Z,9.97
2017-06-24T15:52:02.709Z,10.00
2017-06-24T15:54:30.264Z,10.10
2017-06-24T15:56:57.689Z,10.10
2017-06-24T15:59:26.239Z,9.87
2017-06-24T16:01:53.781Z,10.13
2017-06-24T16:04:21.199Z,9.63
2017-06-24T16:06:48.630Z,10.87
2017-06-24T16:09:16.025Z,10.70
2017-06-24T16:11:43.442Z,10.30
2017-06-24T16:14:10.851Z,10.10
2017-06-24T16:16:38.277Z,10.37
2017-06-24T16:19:05.685Z,10.83
2017-06-24T16:21:33.170Z,9.57
2017-06-24T16:24:00.573Z,9.00
2017-06-24T16:26:27.970Z,9.00
2017-06-24T16:28:55.361Z,10.17
2017-06-24T16:31:22.889Z,10.70
2017-06-24T16:33:50.276Z,11.40
2017-06-24T16:36:18.494Z,10.67
2017-06-24T16:38:45.891Z,10.23
2017-06-24T16:41:13.336Z,10.67
2017-06-24T16:43:40.736Z,10.27
2017-06-24T16:46:08.163Z,10.50
2017-06-24T16:48:35.675Z,10.27
2017-06-24T16:51:03.063Z,11.73
2017-06-24T16:53:35.634Z,11.90
2017-06-24T16:56:03.547Z,10.50
2017-06-24T16:58:31.005Z,11.03
2017-06-24T17:00:58.393Z,10.43
2017-06-24T17:03:25.848Z,9.63
2017-06-24T17:05:53.258Z,10.33
2017-06-24T17:08:20.660Z,11.23
2017-06-24T17:10:48.081Z,10.37
2017-06-24T17:13:15.500Z,10.57
2017-06-24T17:15:42.898Z,9.97
2017-06-24T17:18:10.375Z,9.87
2017-06-24T17:20:37.846Z,10.47
2017-06-24T17:23:05.249Z,10.00
2017-06-24T17:25:32.666Z,10.20
2017-06-24T17:28:00.115Z,10.33
2017-06-24T17:30:27.513Z,10.07
2017-06-24T17:32:54.952Z,10.70
2017-06-24T17:35:22.401Z,10.50
2017-06-24T17:37:49.804Z,9.83
2017-06-24T17:40:17.405Z,10.20
2017-06-24T17:42:47.257Z,10.50
2017-06-24T17:45:14.689Z,10.40
2017-06-24T17:47:42.120Z,11.47
2017-06-24T17:50:10.248Z,10.90
2017-06-24T17:52:37.666Z,11.50
2017-06-24T17:55:05.142Z,10.90
2017-06-24T17:57:32.532Z,12.10
2017-06-24T18:00:00.482Z,11.07
2017-06-24T18:02:29.062Z,12.07
2017-06-24T18:04:56.456Z,11.13
2017-06-24T18:07:23.859Z,11.07
2017-06-24T18:09:51.286Z,10.67
2017-06-24T18:12:18.703Z,11.80
2017-06-24T18:14:46.108Z,12.10
2017-06-24T18:17:13.506Z,11.50
2017-06-24T18:19:40.928Z,11.43
2017-06-24T18:22:08.328Z,11.50
2017-06-24T18:24:35.736Z,11.17
2017-06-24T18:27:03.226Z,15.90
2017-06-24T18:29:30.645Z,11.17
2017-06-24T18:31:58.047Z,12.40
2017-06-24T18:34:25.463Z,12.10
2017-06-24T18:36:52.853Z,11.80
2017-06-24T18:39:20.270Z,11.30
2017-06-24T18:41:47.673Z,13.10
2017-06-24T18:44:15.093Z,18.13
2017-06-24T18:46:42.556Z,15.17
2017-06-24T18:49:09.979Z,15.13
2017-06-24T18:51:37.385Z,17.30
2017-06-24T18:54:04.805Z,14.90
2017-06-24T18:56:32.226Z,13.13
2017-06-24T18:58:59.641Z,15.80
2017-06-24T19:01:27.039Z,17.43
2017-06-24T19:03:54.440Z,15.13
2017-06-24T19:06:21.856Z,17.43
2017-06-24T19:08:49.271Z,14.17
2017-06-24T19:11:16.695Z,16.43
2017-06-24T19:13:44.087Z,15.70
2017-06-24T19:16:11.549Z,14.37
2017-06-24T19:18:38.964Z,13.70
2017-06-24T19:21:06.370Z,16.17
2017-06-24T19:23:33.824Z,15.47
2017-06-24T19:26:01.266Z,13.90
2017-06-24T19:28:28.703Z,16.90
2017-06-24T19:30:56.102Z,16.07
2017-06-24T19:33:23.548Z,16.33
2017-06-24T19:35:50.941Z,16.33
2017-06-24T19:38:18.372Z,15.90
2017-06-24T19:40:45.887Z,15.77
2017-06-24T19:43:13.268Z,16.53
2017-06-24T19:45:40.689Z,15.43
2017-06-24T19:48:08.110Z,16.90
2017-06-24T19:50:35.615Z,23.37
2017-06-24T19:53:03.032Z,18.70
2017-06-24T19:55:30.430Z,22.30
2017-06-24T19:57:58.012Z,17.40
2017-06-24T20:00:25.432Z,19.40
2017-06-24T20:02:52.861Z,18.10
2017-06-24T20:05:20.296Z,17.33
2017-06-24T20:07:47.759Z,17.00
2017-06-24T20:10:15.267Z,15.77
2017-06-24T20:12:42.668Z,17.33
2017-06-24T20:15:10.157Z,16.60
2017-06-24T20:17:37.668Z,15.17
2017-06-24T20:20:05.114Z,16.57
2017-06-24T20:22:32.500Z,17.00
2017-06-24T20:24:59.888Z,17.83
2017-06-24T20:27:27.348Z,16.60
2017-06-24T20:29:54.843Z,17.07
2017-06-24T20:32:22.216Z,18.20
2017-06-24T20:34:49.635Z,17.40
2017-06-24T20:37:17.102Z,18.63
2017-06-24T20:39:44.491Z,17.80
2017-06-24T20:42:11.887Z,17.97
2017-06-24T20:44:39.328Z,16.63
2017-06-24T20:47:06.722Z,16.70
2017-06-24T20:49:34.109Z,19.60
2017-06-24T20:52:01.555Z,17.13
2017-06-24T20:54:28.956Z,18.33
2017-06-24T20:56:56.372Z,17.77
2017-06-24T20:59:23.808Z,17.07
2017-06-24T21:01:51.210Z,16.10
2017-06-24T21:04:18.633Z,18.53
2017-06-24T21:06:46.039Z,16.87
2017-06-24T21:09:13.514Z,17.37
2017-06-24T21:11:40.937Z,19.03
2017-06-24T21:14:08.346Z,18.27
2017-06-24T21:16:35.816Z,17.80
2017-06-24T21:19:03.220Z,18.87
2017-06-24T21:21:30.622Z,16.40
2017-06-24T21:23:58.045Z,17.07
2017-06-24T21:26:25.456Z,16.97
2017-06-24T21:28:52.864Z,17.40
2017-06-24T21:31:20.276Z,16.67
2017-06-24T21:33:47.688Z,17.57
2017-06-24T21:36:15.130Z,18.40
2017-06-24T21:38:42.595Z,19.27
2017-06-24T21:41:09.973Z,18.00
2017-06-24T21:43:37.448Z,17.30
2017-06-24T21:46:04.851Z,18.80
2017-06-24T21:48:32.244Z,18.67
2017-06-24T21:50:59.676Z,18.30
2017-06-24T21:53:27.079Z,17.70
2017-06-24T21:55:54.476Z,17.00
2017-06-24T21:58:21.884Z,17.17
2017-06-24T22:00:49.296Z,15.30
2017-06-24T22:03:16.700Z,18.20
2017-06-24T22:05:44.134Z,17.30
2017-06-24T22:08:11.549Z,18.23
2017-06-24T22:10:39.086Z,19.17
2017-06-24T22:13:06.508Z,17.30
2017-06-24T22:15:33.928Z,17.10
2017-06-24T22:18:01.325Z,16.40
2017-06-24T22:20:28.755Z,17.70
2017-06-24T22:22:56.150Z,17.30
2017-06-24T22:25:23.587Z,16.10
2017-06-24T22:27:51.003Z,17.40
2017-06-24T22:30:18.453Z,17.30
2017-06-24T22:32:45.836Z,19.07
2017-06-24T22:35:13.325Z,18.00
2017-06-24T22:37:40.712Z,17.67
2017-06-24T22:40:08.165Z,19.37
2017-06-24T22:42:35.561Z,18.80
2017-06-24T22:45:03.012Z,18.50
2017-06-24T22:47:30.521Z,19.43
2017-06-24T22:49:57.915Z,18.17
2017-06-24T22:52:25.329Z,18.53
2017-06-24T22:54:52.732Z,17.70
2017-06-24T22:57:20.137Z,18.17
2017-06-24T22:59:47.532Z,18.17
2017-06-24T23:02:14.941Z,17.87
2017-06-24T23:04:42.381Z,18.93
2017-06-24T23:07:09.812Z,18.20
2017-06-24T23:09:37.240Z,19.53
2017-06-24T23:12:04.680Z,18.70
2017-06-24T23:14:32.083Z,17.30
2017-06-24T23:16:59.519Z,17.00
2017-06-24T23:19:26.990Z,17.93
2017-06-24T23:21:54.404Z,17.73
2017-06-24T23:24:21.824Z,17.30
2017-06-24T23:26:49.220Z,17.93
2017-06-24T23:29:16.636Z,17.93
2017-06-24T23:31:44.028Z,19.50
2017-06-24T23:34:11.461Z,17.70
2017-06-24T23:36:38.866Z,17.27
2017-06-24T23:39:06.283Z,18.77
2017-06-24T23:41:33.686Z,18.30
2017-06-24T23:44:01.129Z,17.90
2017-06-24T23:46:28.524Z,18.80
2017-06-24T23:48:55.965Z,18.10
2017-06-24T23:51:23.372Z,19.77
2017-06-24T23:53:50.783Z,17.87
2017-06-24T23:56:18.212Z,18.83
2017-06-24T23:58:45.649Z,18.77
